VISIB

Not for real navigation. The accuracy of this data is not assured See disclaimer for more information



ICAO NAME COUNTRY WIND Kt GUST Kt VIS m TEMP/DEW C BARO METAR
URFF 3 0 50 6/6 30.21 URFF 172200Z 07003KT 0050 R01/0300N FG VV002 06/06 Q1023 R01/090095 NOSIG RMK OBST OBSC
EDDE Erfurt-Bindersleben Germany 2 0 100 3/3 29.62 EDDE 172150Z 20002KT 0100 R28/0550N FG VV/// 03/03 Q1003
LIPO Brescia / Montichia Italy 3 0 100 4/4 29.74 LIPO 172150Z 21003KT 0100 R32/0400 FG NSC 04/04 Q1007
LIVR Passo Rolle Italy 9 24 100 -1/-3 29.56 LIVR 172055Z VRB09G24KT 0100 FZFG VV/// M01/M03 Q1001 RMK MON INVIS VIS MIN 0100
LTBF Balikesir Turkey 0 0 200 7/7 30.15 LTBF 172150Z 00000KT 0200 R36/0175N R18/0200N FG VV002 07/07 Q1021 NOSIG RMK RWY18 00000KT

Show more